createdAt,value
2018-12-22T00:00:12.096Z,98672.69
2018-12-22T00:02:38.377Z,98660.58
2018-12-22T00:05:04.774Z,98670.25
2018-12-22T00:07:30.908Z,98687.89
2018-12-22T00:09:57.016Z,98686.91
2018-12-22T00:12:23.213Z,98684.81
2018-12-22T00:14:49.385Z,98673.97
2018-12-22T00:17:15.526Z,98695.41
2018-12-22T00:19:41.633Z,98680.77
2018-12-22T00:22:07.842Z,98685.53
2018-12-22T00:24:33.939Z,98688.20
2018-12-22T00:27:00.058Z,98676.23
2018-12-22T00:29:26.296Z,98651.98
2018-12-22T00:31:52.664Z,98670.58
2018-12-22T00:34:18.841Z,98685.16
2018-12-22T00:36:45.006Z,98677.61
2018-12-22T00:39:11.074Z,98682.48
2018-12-22T00:41:37.264Z,98691.17
2018-12-22T00:44:03.511Z,98695.52
2018-12-22T00:46:29.736Z,98704.63
2018-12-22T00:48:55.853Z,98697.16
2018-12-22T00:51:21.964Z,98687.06
2018-12-22T00:53:48.196Z,98698.51
2018-12-22T00:56:14.308Z,98711.41
2018-12-22T00:58:40.542Z,98698.06
2018-12-22T01:01:06.760Z,98704.56
2018-12-22T01:03:32.944Z,98707.87
2018-12-22T01:05:59.061Z,98718.44
2018-12-22T01:08:25.298Z,98711.82
2018-12-22T01:10:58.261Z,98722.41
2018-12-22T01:13:24.358Z,98733.83
2018-12-22T01:15:50.535Z,98729.55
2018-12-22T01:18:16.649Z,98742.10
2018-12-22T01:20:42.867Z,98719.68
2018-12-22T01:23:08.974Z,98743.75
2018-12-22T01:25:35.233Z,98732.45
2018-12-22T01:28:01.475Z,98744.27
2018-12-22T01:30:27.757Z,98743.52
2018-12-22T01:32:53.851Z,98740.77
2018-12-22T01:35:19.950Z,98746.06
2018-12-22T01:37:46.314Z,98749.20
2018-12-22T01:40:12.418Z,98762.36
2018-12-22T01:42:38.732Z,98770.31
2018-12-22T01:45:05.545Z,98700.34
2018-12-22T01:47:31.645Z,98748.86
2018-12-22T01:49:57.828Z,98754.65
2018-12-22T01:52:23.932Z,98753.22
2018-12-22T01:54:50.135Z,98756.39
2018-12-22T01:57:16.382Z,98759.04
2018-12-22T01:59:42.595Z,98754.23
2018-12-22T02:02:08.877Z,98753.45
2018-12-22T02:04:35.050Z,98759.70
2018-12-22T02:07:01.229Z,98766.30
2018-12-22T02:09:27.327Z,98757.19
2018-12-22T02:11:53.429Z,98743.98
2018-12-22T02:14:19.589Z,98779.91
2018-12-22T02:16:46.028Z,98756.00
2018-12-22T02:19:12.172Z,98764.78
2018-12-22T02:21:38.333Z,98764.61
2018-12-22T02:24:04.595Z,98760.35
2018-12-22T02:26:30.775Z,98750.91
2018-12-22T02:28:57.065Z,98755.93
2018-12-22T02:31:23.453Z,98761.05
2018-12-22T02:33:49.668Z,98749.38
2018-12-22T02:36:15.984Z,98756.99
2018-12-22T02:38:42.088Z,98742.09
2018-12-22T02:41:08.297Z,98757.19
2018-12-22T02:43:34.503Z,98755.42
2018-12-22T02:46:01.033Z,98745.98
2018-12-22T02:48:27.225Z,98748.83
2018-12-22T02:50:53.291Z,98765.95
2018-12-22T02:53:19.386Z,98739.67
2018-12-22T02:55:45.668Z,98741.70
2018-12-22T02:58:11.764Z,98755.10
2018-12-22T03:00:38.071Z,98759.22
2018-12-22T03:03:04.356Z,98746.30
2018-12-22T03:05:30.536Z,98767.27
2018-12-22T03:07:56.744Z,98765.92
2018-12-22T03:10:22.958Z,98766.81
2018-12-22T03:12:49.084Z,98750.31
2018-12-22T03:15:15.361Z,98754.57
2018-12-22T03:17:41.481Z,98753.57
2018-12-22T03:20:07.725Z,98769.49
2018-12-22T03:22:34.001Z,98761.30
2018-12-22T03:25:00.152Z,98756.48
2018-12-22T03:27:26.381Z,98768.92
2018-12-22T03:29:52.726Z,98762.10
2018-12-22T03:32:19.050Z,98756.36
2018-12-22T03:34:45.306Z,98769.29
2018-12-22T03:37:11.623Z,98772.77
2018-12-22T03:39:37.940Z,98772.71
2018-12-22T03:42:04.383Z,98777.27
2018-12-22T03:44:30.590Z,98784.02
2018-12-22T03:47:03.879Z,98797.23
2018-12-22T03:49:36.874Z,98789.30
2018-12-22T03:52:03.171Z,98796.38
2018-12-22T03:54:29.410Z,98811.21
2018-12-22T03:56:56.253Z,98814.48
2018-12-22T03:59:24.919Z,98818.73
2018-12-22T04:01:51.280Z,98825.48
2018-12-22T04:04:17.386Z,98813.91
2018-12-22T04:06:43.565Z,98832.25
2018-12-22T04:09:10.366Z,98836.28
2018-12-22T04:11:36.559Z,98829.09
2018-12-22T04:14:02.914Z,98839.59
2018-12-22T04:16:29.022Z,98827.66
2018-12-22T04:18:55.206Z,98835.17
2018-12-22T04:21:21.416Z,98828.55
2018-12-22T04:23:47.608Z,98834.84
2018-12-22T04:26:13.853Z,98834.00
2018-12-22T04:28:40.056Z,98844.62
2018-12-22T04:31:06.249Z,98836.20
2018-12-22T04:33:32.561Z,98846.19
2018-12-22T04:35:58.683Z,98855.08
2018-12-22T04:38:24.804Z,98846.16
2018-12-22T04:40:50.976Z,98857.80
2018-12-22T04:43:17.087Z,98850.17
2018-12-22T04:45:43.237Z,98852.03
2018-12-22T04:48:09.310Z,98848.73
2018-12-22T04:50:35.438Z,98844.37
2018-12-22T04:53:01.501Z,98845.36
2018-12-22T04:55:27.679Z,98842.58
2018-12-22T04:57:53.772Z,98834.31
2018-12-22T05:00:19.876Z,98845.77
2018-12-22T05:02:45.962Z,98833.83
2018-12-22T05:05:12.153Z,98840.55
2018-12-22T05:07:38.281Z,98841.56
2018-12-22T05:10:06.557Z,98839.42
2018-12-22T05:12:32.627Z,98849.41
2018-12-22T05:14:58.946Z,98844.91
2018-12-22T05:17:25.137Z,98844.02
2018-12-22T05:19:51.442Z,98843.76
2018-12-22T05:22:17.676Z,98841.14
2018-12-22T05:24:43.932Z,98847.63
2018-12-22T05:27:10.061Z,98844.39
2018-12-22T05:29:36.258Z,98835.84
2018-12-22T05:32:02.557Z,98852.19
2018-12-22T05:34:28.866Z,98852.38
2018-12-22T05:36:54.986Z,98850.94
2018-12-22T05:39:21.101Z,98863.33
2018-12-22T05:41:47.333Z,98851.95
2018-12-22T05:44:13.556Z,98851.61
2018-12-22T05:46:39.861Z,98851.48
2018-12-22T05:49:06.045Z,98853.14
2018-12-22T05:51:32.157Z,98862.00
2018-12-22T05:53:58.265Z,98870.73
2018-12-22T05:56:24.493Z,98859.88
2018-12-22T05:58:50.689Z,98859.03
2018-12-22T06:01:16.912Z,98861.06
2018-12-22T06:03:43.128Z,98872.27
2018-12-22T06:06:09.426Z,98867.17
2018-12-22T06:08:35.556Z,98871.58
2018-12-22T06:11:01.805Z,98875.37
2018-12-22T06:13:35.048Z,98876.42
2018-12-22T06:16:01.388Z,98871.45
2018-12-22T06:18:27.610Z,98874.41
2018-12-22T06:20:53.845Z,98871.67
2018-12-22T06:23:20.067Z,98872.45
2018-12-22T06:25:46.523Z,98873.88
2018-12-22T06:28:12.709Z,98871.75
2018-12-22T06:30:38.943Z,98870.27
2018-12-22T06:33:05.395Z,98867.15
2018-12-22T06:35:31.490Z,98869.59
2018-12-22T06:37:57.601Z,98868.95
2018-12-22T06:40:23.754Z,98873.77
2018-12-22T06:42:50.004Z,98879.66
2018-12-22T06:45:16.091Z,98869.91
2018-12-22T06:47:42.209Z,98874.00
2018-12-22T06:50:08.394Z,98864.20
2018-12-22T06:52:34.847Z,98871.52
2018-12-22T06:55:01.044Z,98871.39
2018-12-22T06:57:27.184Z,98875.72
2018-12-22T06:59:53.293Z,98872.10
2018-12-22T07:02:19.558Z,98874.18
2018-12-22T07:04:45.677Z,98869.43
2018-12-22T07:07:11.906Z,98873.23
2018-12-22T07:09:38.033Z,98878.05
2018-12-22T07:12:04.253Z,98872.52
2018-12-22T07:14:30.662Z,98880.55
2018-12-22T07:16:56.787Z,98880.62
2018-12-22T07:19:23.102Z,98878.05
2018-12-22T07:21:49.201Z,98870.28
2018-12-22T07:24:15.392Z,98875.97
2018-12-22T07:26:41.667Z,98869.59
2018-12-22T07:29:07.913Z,98877.62
2018-12-22T07:31:34.893Z,98866.41
2018-12-22T07:34:01.966Z,98870.44
2018-12-22T07:36:28.072Z,98876.27
2018-12-22T07:38:56.261Z,98878.19
2018-12-22T07:41:23.197Z,98866.53
2018-12-22T07:43:56.501Z,98875.31
2018-12-22T07:46:22.705Z,98867.04
2018-12-22T07:48:48.906Z,98858.92
2018-12-22T07:51:15.922Z,98869.02
2018-12-22T07:53:42.029Z,98867.66
2018-12-22T07:56:08.808Z,98849.99
2018-12-22T07:58:35.060Z,98876.97
2018-12-22T08:01:02.242Z,98877.77
2018-12-22T08:03:28.417Z,98871.07
2018-12-22T08:05:55.518Z,98863.16
2018-12-22T08:08:23.643Z,98864.16
2018-12-22T08:10:50.578Z,98853.47
2018-12-22T08:13:16.698Z,98849.30
2018-12-22T08:15:43.165Z,98850.18
2018-12-22T08:18:10.108Z,98843.58
2018-12-22T08:20:37.089Z,98845.38
2018-12-22T08:23:03.282Z,98840.80
2018-12-22T08:25:30.401Z,98847.09
2018-12-22T08:27:57.202Z,98840.11
2018-12-22T08:30:24.434Z,98846.41
2018-12-22T08:32:52.127Z,98848.89
2018-12-22T08:35:18.353Z,98839.80
2018-12-22T08:37:44.647Z,98851.84
2018-12-22T08:40:10.874Z,98854.25
2018-12-22T08:42:37.217Z,98852.86
2018-12-22T08:45:06.402Z,98862.06
2018-12-22T08:47:32.590Z,98863.34
2018-12-22T08:49:58.697Z,98863.92
2018-12-22T08:52:25.677Z,98857.23
2018-12-22T08:54:51.770Z,98860.05
2018-12-22T08:57:17.998Z,98868.30
2018-12-22T08:59:44.129Z,98857.86
2018-12-22T09:02:11.285Z,98861.45
2018-12-22T09:04:37.501Z,98861.00
2018-12-22T09:07:03.613Z,98862.03
2018-12-22T09:09:29.685Z,98859.73
2018-12-22T09:11:55.981Z,98870.09
2018-12-22T09:14:22.733Z,98872.44
2018-12-22T09:16:49.010Z,98860.19
2018-12-22T09:19:15.432Z,98856.77
2018-12-22T09:21:41.659Z,98856.80
2018-12-22T09:24:08.780Z,98859.38
2018-12-22T09:26:34.873Z,98851.79
2018-12-22T09:29:02.178Z,98847.86
2018-12-22T09:31:28.943Z,98846.69
2018-12-22T09:33:55.882Z,98838.98
2018-12-22T09:36:23.217Z,98840.59
2018-12-22T09:38:49.385Z,98834.34
2018-12-22T09:41:15.586Z,98832.28
2018-12-22T09:43:41.777Z,98831.44
2018-12-22T09:46:07.954Z,98823.02
2018-12-22T09:48:41.315Z,98823.78
2018-12-22T09:51:08.386Z,98823.42
2018-12-22T09:53:34.599Z,98815.01
2018-12-22T09:56:00.938Z,98810.44
2018-12-22T09:58:27.150Z,98808.71
2018-12-22T10:00:54.212Z,98807.26
2018-12-22T10:03:20.444Z,98810.90
2018-12-22T10:05:49.201Z,98808.12
2018-12-22T10:08:15.533Z,98817.00
2018-12-22T10:10:41.817Z,98824.17
2018-12-22T10:13:08.067Z,98826.56
2018-12-22T10:15:37.165Z,98826.34
2018-12-22T10:18:03.401Z,98833.31
2018-12-22T10:20:29.700Z,98838.93
2018-12-22T10:22:56.733Z,98834.29
2018-12-22T10:25:23.914Z,98840.52
2018-12-22T10:27:51.269Z,98841.64
2018-12-22T10:30:17.878Z,98853.43
2018-12-22T10:32:44.096Z,98862.17
2018-12-22T10:35:16.804Z,98859.84
2018-12-22T10:37:43.823Z,98857.17
2018-12-22T10:40:10.051Z,98854.07
2018-12-22T10:42:36.263Z,98852.20
2018-12-22T10:45:05.654Z,98848.97
2018-12-22T10:47:31.741Z,98854.39
2018-12-22T10:49:57.857Z,98862.26
2018-12-22T10:52:24.046Z,98862.75
2018-12-22T10:54:50.144Z,98864.81
2018-12-22T10:57:16.262Z,98874.20
2018-12-22T10:59:43.614Z,98888.90
2018-12-22T11:02:09.813Z,98898.78
2018-12-22T11:04:36.051Z,98918.87
2018-12-22T11:07:07.273Z,98922.63
2018-12-22T11:09:33.422Z,98904.80
2018-12-22T11:11:59.577Z,98942.09
2018-12-22T11:14:25.729Z,98926.58
2018-12-22T11:16:51.888Z,98943.20
2018-12-22T11:19:18.007Z,98933.67
2018-12-22T11:21:44.106Z,98936.50
2018-12-22T11:24:10.391Z,98944.30
2018-12-22T11:26:36.612Z,98954.83
2018-12-22T11:29:03.102Z,98972.48
2018-12-22T11:31:34.993Z,98988.28
2018-12-22T11:33:57.432Z,98975.98
2018-12-22T11:36:23.628Z,98983.65
2018-12-22T11:38:49.757Z,98995.02
2018-12-22T11:41:16.224Z,99001.99
2018-12-22T11:43:42.313Z,98996.78
2018-12-22T11:46:08.442Z,99010.81
2018-12-22T11:48:34.849Z,99022.83
2018-12-22T11:51:00.974Z,99038.07
2018-12-22T11:53:27.083Z,99051.25
2018-12-22T11:55:53.182Z,99049.13
2018-12-22T11:58:19.278Z,99051.87
2018-12-22T12:00:45.540Z,99067.18
2018-12-22T12:03:11.617Z,99071.67
2018-12-22T12:05:37.802Z,99077.48
2018-12-22T12:08:06.935Z,99099.77
2018-12-22T12:10:33.129Z,99099.80
2018-12-22T12:12:59.242Z,99111.78
2018-12-22T12:15:26.816Z,99108.91
2018-12-22T12:18:16.573Z,99112.24
2018-12-22T12:20:43.424Z,99122.20
2018-12-22T12:23:10.544Z,99122.20
2018-12-22T12:25:37.606Z,99133.61
2018-12-22T12:28:03.987Z,99146.96
2018-12-22T12:30:30.118Z,99139.87
2018-12-22T12:32:56.186Z,99152.91
2018-12-22T12:35:22.517Z,99163.95
2018-12-22T12:37:48.705Z,99159.66
2018-12-22T12:40:14.871Z,99171.69
2018-12-22T12:42:41.090Z,99186.52
2018-12-22T12:45:12.542Z,99181.37
2018-12-22T12:47:43.653Z,99189.88
2018-12-22T12:50:15.696Z,99199.98
2018-12-22T12:52:41.942Z,99205.83
2018-12-22T12:55:11.111Z,99217.34
2018-12-22T12:57:37.305Z,99221.58
2018-12-22T13:00:20.252Z,99233.34
2018-12-22T13:02:46.421Z,99238.08
2018-12-22T13:05:13.220Z,99240.35
2018-12-22T13:07:39.450Z,99248.51
2018-12-22T13:10:13.438Z,99249.02
2018-12-22T13:13:02.853Z,99281.35
2018-12-22T13:15:29.013Z,99264.78
2018-12-22T13:17:55.106Z,99271.94
2018-12-22T13:20:23.280Z,99277.81
2018-12-22T13:22:49.447Z,99287.84
2018-12-22T13:25:15.681Z,99291.21
2018-12-22T13:27:41.923Z,99298.01
2018-12-22T13:30:11.391Z,99307.19
2018-12-22T13:32:38.622Z,99312.73
2018-12-22T13:35:09.882Z,99312.93
2018-12-22T13:37:36.293Z,99266.84
2018-12-22T13:40:17.659Z,99326.20
2018-12-22T13:42:43.901Z,99335.59
2018-12-22T13:45:10.374Z,99348.33
2018-12-22T13:47:37.682Z,99351.57
2018-12-22T13:50:10.786Z,99350.77
2018-12-22T13:52:37.754Z,99361.52
2018-12-22T13:55:08.520Z,99363.06
2018-12-22T13:57:38.824Z,99378.42
2018-12-22T14:00:24.234Z,99380.44
2018-12-22T14:02:50.411Z,99384.78
2018-12-22T14:05:23.165Z,99380.23
2018-12-22T14:07:49.373Z,99397.44
2018-12-22T14:10:16.260Z,99405.78
2018-12-22T14:12:42.371Z,99402.52
2018-12-22T14:15:14.702Z,99411.03
2018-12-22T14:17:45.810Z,99421.31
2018-12-22T14:20:12.782Z,99428.56
2018-12-22T14:22:39.021Z,99440.44
2018-12-22T14:25:11.332Z,99448.83
2018-12-22T14:27:38.297Z,99455.51
2018-12-22T14:30:10.809Z,99458.59
2018-12-22T14:32:36.940Z,99454.69
2018-12-22T14:35:14.060Z,99470.94
2018-12-22T14:37:40.370Z,99468.97
2018-12-22T14:40:11.187Z,99477.66
2018-12-22T14:42:37.657Z,99470.13
2018-12-22T14:45:10.143Z,99478.98
2018-12-22T14:47:36.491Z,99489.09
2018-12-22T14:50:07.784Z,99499.52
2018-12-22T14:52:33.915Z,99502.31
2018-12-22T14:55:02.248Z,99513.16
2018-12-22T14:57:43.889Z,99516.89
2018-12-22T15:00:14.730Z,99510.25
2018-12-22T15:02:41.057Z,99529.63
2018-12-22T15:05:07.306Z,99537.33
2018-12-22T15:07:33.429Z,99542.88
2018-12-22T15:10:00.475Z,99544.13
2018-12-22T15:12:27.612Z,99545.06
2018-12-22T15:14:53.853Z,99566.80
2018-12-22T15:17:20.004Z,99555.79
2018-12-22T15:19:47.713Z,99571.55
2018-12-22T15:22:14.039Z,99573.57
2018-12-22T15:24:40.413Z,99570.27
2018-12-22T15:27:06.548Z,99573.09
2018-12-22T15:32:11.764Z,99574.13
2018-12-22T15:34:38.124Z,99583.38
2018-12-22T15:37:04.449Z,99581.39
2018-12-22T15:39:31.350Z,99582.16
2018-12-22T15:41:57.501Z,99583.50
2018-12-22T15:44:23.614Z,99590.45
2018-12-22T15:46:49.831Z,99602.42
2018-12-22T15:49:17.603Z,99605.75
2018-12-22T15:51:44.057Z,99613.22
2018-12-22T15:54:14.068Z,99622.63
2018-12-22T15:56:40.271Z,99611.17
2018-12-22T15:59:06.478Z,99613.84
2018-12-22T16:01:32.765Z,99625.61
2018-12-22T16:03:58.965Z,99621.01
2018-12-22T16:06:25.391Z,99616.83
2018-12-22T16:08:51.788Z,99609.95
2018-12-22T16:11:20.305Z,99615.72
2018-12-22T16:13:46.606Z,99630.27
2018-12-22T16:16:13.484Z,99624.64
2018-12-22T16:18:40.265Z,99624.17
2018-12-22T16:21:06.594Z,99632.84
2018-12-22T16:23:33.146Z,99634.05
2018-12-22T16:26:07.238Z,99632.49
2018-12-22T16:28:33.793Z,99636.47
2018-12-22T16:31:00.041Z,99631.50
2018-12-22T16:33:27.830Z,99645.28
2018-12-22T16:35:54.183Z,99636.24
2018-12-22T16:38:20.515Z,99637.41
2018-12-22T16:40:46.971Z,99632.89
2018-12-22T16:43:13.326Z,99645.41
2018-12-22T16:45:41.885Z,99642.69
2018-12-22T16:48:08.199Z,99650.28
2018-12-22T16:50:36.589Z,99654.88
2018-12-22T16:53:02.816Z,99655.06
2018-12-22T16:55:31.326Z,99657.91
2018-12-22T16:58:08.235Z,99663.00
2018-12-22T17:03:38.831Z,99666.08
2018-12-22T17:06:07.757Z,99675.89
2018-12-22T17:08:34.192Z,99670.77
2018-12-22T17:11:00.548Z,99679.77
2018-12-22T17:13:26.742Z,99679.23
2018-12-22T17:15:54.854Z,99685.17
2018-12-22T17:18:22.266Z,99690.68
2018-12-22T17:20:55.623Z,99694.35
2018-12-22T17:23:35.591Z,99693.02
2018-12-22T17:26:02.026Z,99686.91
2018-12-22T17:28:30.022Z,99682.72
2018-12-22T17:30:56.387Z,99691.72
2018-12-22T17:33:22.796Z,99697.84
2018-12-22T17:35:49.061Z,99693.09
2018-12-22T17:38:15.280Z,99689.73
2018-12-22T17:40:41.481Z,99687.84
2018-12-22T17:43:08.199Z,99687.52
2018-12-22T17:45:34.384Z,99685.75
2018-12-22T17:48:02.663Z,99684.92
2018-12-22T17:50:28.847Z,99687.12
2018-12-22T17:52:55.007Z,99693.27
2018-12-22T17:55:21.238Z,99690.94
2018-12-22T17:57:47.535Z,99701.47
2018-12-22T18:00:14.438Z,99702.67
2018-12-22T18:02:45.509Z,99712.36
2018-12-22T18:05:11.872Z,99702.41
2018-12-22T18:07:38.132Z,99702.45
2018-12-22T18:10:10.006Z,99708.37
2018-12-22T18:12:36.387Z,99711.78
2018-12-22T18:15:17.601Z,99711.89
2018-12-22T18:17:43.834Z,99705.59
2018-12-22T18:20:10.145Z,99705.27
2018-12-22T18:22:36.458Z,99696.81
2018-12-22T18:25:08.881Z,99694.84
2018-12-22T18:27:35.092Z,99691.81
2018-12-22T18:30:01.293Z,99684.92
2018-12-22T18:32:27.492Z,99689.63
2018-12-22T18:34:53.829Z,99684.45
2018-12-22T18:37:20.036Z,99688.28
2018-12-22T18:39:46.148Z,99683.56
2018-12-22T18:42:12.782Z,99690.14
2018-12-22T18:44:40.060Z,99682.73
2018-12-22T18:47:08.090Z,99689.50
2018-12-22T18:49:35.238Z,99695.64
2018-12-22T18:52:01.364Z,99698.30
2018-12-22T18:54:28.531Z,99697.55
2018-12-22T18:56:54.742Z,99701.61
2018-12-22T18:59:21.363Z,99705.95
2018-12-22T19:01:47.803Z,99704.50
2018-12-22T19:04:14.130Z,99708.14
2018-12-22T19:06:42.352Z,99712.75
2018-12-22T19:09:12.972Z,99702.73
2018-12-22T19:11:40.193Z,99697.65
2018-12-22T19:14:07.274Z,99698.95
2018-12-22T19:16:33.395Z,99704.36
2018-12-22T19:19:00.147Z,99711.22
2018-12-22T19:21:26.350Z,99702.47
2018-12-22T19:23:53.307Z,99708.86
2018-12-22T19:26:20.349Z,99714.66
2018-12-22T19:28:46.698Z,99710.83
2018-12-22T19:31:12.881Z,99706.88
2018-12-22T19:33:38.971Z,99700.53
2018-12-22T19:36:06.080Z,99714.98
2018-12-22T19:38:32.361Z,99702.72
2018-12-22T19:40:58.716Z,99706.31
2018-12-22T19:43:24.816Z,99703.59
2018-12-22T19:45:51.144Z,99696.03
2018-12-22T19:48:17.250Z,99699.14
2018-12-22T19:50:43.515Z,99702.59
2018-12-22T19:53:09.742Z,99705.78
2018-12-22T19:55:35.935Z,99703.66
2018-12-22T19:58:02.145Z,99717.80
2018-12-22T20:00:28.610Z,99707.38
2018-12-22T20:02:54.912Z,99709.23
2018-12-22T20:05:21.142Z,99704.02
2018-12-22T20:07:47.560Z,99705.94
2018-12-22T20:10:13.804Z,99709.02
2018-12-22T20:12:40.127Z,99717.93
2018-12-22T20:15:06.587Z,99718.12
2018-12-22T20:17:32.872Z,99723.80
2018-12-22T20:19:59.162Z,99724.27
2018-12-22T20:22:25.362Z,99719.05
2018-12-22T20:24:51.501Z,99714.56
2018-12-22T20:27:17.961Z,99717.81
2018-12-22T20:29:44.366Z,99711.22
2018-12-22T20:32:11.202Z,99723.80
2018-12-22T20:34:37.492Z,99735.84
2018-12-22T20:37:03.652Z,99718.67
2018-12-22T20:39:29.865Z,99732.98
2018-12-22T20:41:56.086Z,99737.03
2018-12-22T20:44:22.177Z,99734.80
2018-12-22T20:46:48.392Z,99737.72
2018-12-22T20:49:14.490Z,99745.85
2018-12-22T20:51:40.608Z,99744.42
2018-12-22T20:54:06.866Z,99745.01
2018-12-22T20:56:32.941Z,99747.47
2018-12-22T20:58:59.167Z,99752.59
2018-12-22T21:01:25.394Z,99750.14
2018-12-22T21:03:51.778Z,99747.06
2018-12-22T21:06:21.391Z,99750.73
2018-12-22T21:08:47.714Z,99741.13
2018-12-22T21:11:14.018Z,99751.64
2018-12-22T21:13:40.356Z,99750.13
2018-12-22T21:16:06.517Z,99746.13
2018-12-22T21:18:32.849Z,99758.89
2018-12-22T21:21:00.526Z,99749.08
2018-12-22T21:23:27.271Z,99742.02
2018-12-22T21:25:53.467Z,99751.02
2018-12-22T21:28:19.737Z,99757.08
2018-12-22T21:30:45.926Z,99756.23
2018-12-22T21:33:12.088Z,99769.20
2018-12-22T21:35:38.298Z,99777.87
2018-12-22T21:38:04.654Z,99775.52
2018-12-22T21:40:30.902Z,99763.85
2018-12-22T21:42:57.043Z,99788.66
2018-12-22T21:45:23.302Z,99788.98
2018-12-22T21:47:49.632Z,99793.72
2018-12-22T21:50:22.967Z,99790.83
2018-12-22T21:52:49.541Z,99795.01
2018-12-22T21:55:15.872Z,99789.05
2018-12-22T21:57:42.151Z,99792.44
2018-12-22T22:00:08.565Z,99784.00
2018-12-22T22:02:34.808Z,99785.58
2018-12-22T22:05:01.161Z,99793.63
2018-12-22T22:07:27.359Z,99792.28
2018-12-22T22:09:53.501Z,99797.17
2018-12-22T22:12:19.750Z,99798.62
2018-12-22T22:14:46.065Z,99794.30
2018-12-22T22:17:12.385Z,99796.05
2018-12-22T22:19:38.666Z,99791.59
2018-12-22T22:22:05.012Z,99790.21
2018-12-22T22:24:31.125Z,99808.66
2018-12-22T22:26:57.501Z,99795.98
2018-12-22T22:29:23.734Z,99791.67
2018-12-22T22:31:49.872Z,99805.51
2018-12-22T22:34:15.967Z,99805.41
2018-12-22T22:36:42.136Z,99798.29
2018-12-22T22:39:08.241Z,99811.67
2018-12-22T22:41:34.365Z,99809.17
2018-12-22T22:44:00.597Z,99808.69
2018-12-22T22:46:26.925Z,99822.08
2018-12-22T22:48:53.065Z,99827.50
2018-12-22T22:51:19.398Z,99825.42
2018-12-22T22:53:45.525Z,99824.33
2018-12-22T22:56:11.802Z,99830.20
2018-12-22T22:58:38.045Z,99824.38
2018-12-22T23:01:04.609Z,99838.38
2018-12-22T23:03:30.833Z,99843.50
2018-12-22T23:05:57.080Z,99839.27
2018-12-22T23:08:23.367Z,99847.52
2018-12-22T23:10:49.832Z,99844.54
2018-12-22T23:13:16.029Z,99844.06
2018-12-22T23:15:42.634Z,99849.23
2018-12-22T23:18:08.764Z,99849.45
2018-12-22T23:20:34.935Z,99851.75
2018-12-22T23:23:01.117Z,99845.23
2018-12-22T23:25:27.453Z,99844.96
2018-12-22T23:27:53.638Z,99843.09
2018-12-22T23:30:19.858Z,99852.17
2018-12-22T23:32:45.979Z,99855.20
2018-12-22T23:35:12.213Z,99858.44
2018-12-22T23:37:38.357Z,99866.03
2018-12-22T23:40:04.666Z,99864.04
2018-12-22T23:42:30.792Z,99868.12
2018-12-22T23:44:56.936Z,99860.77
2018-12-22T23:47:23.103Z,99861.75
2018-12-22T23:49:49.242Z,99860.54
2018-12-22T23:52:15.433Z,99872.19
2018-12-22T23:54:41.549Z,99872.95
2018-12-22T23:57:07.926Z,99864.73
2018-12-22T23:59:34.212Z,99869.97
